sensor_id;sensor_type;location;lat;lon;timestamp;P1;durP1;ratioP1;P2;durP2;ratioP2
53925;SDS011;39836;52.754;6.866;2023-10-08T00:02:45;4.03;;;1.50;;
53925;SDS011;39836;52.754;6.866;2023-10-08T00:05:10;3.55;;;1.40;;
53925;SDS011;39836;52.754;6.866;2023-10-08T00:07:40;2.63;;;1.10;;
53925;SDS011;39836;52.754;6.866;2023-10-08T00:10:07;2.25;;;1.10;;
53925;SDS011;39836;52.754;6.866;2023-10-08T00:12:34;3.63;;;1.25;;
53925;SDS011;39836;52.754;6.866;2023-10-08T00:14:59;4.20;;;1.10;;
53925;SDS011;39836;52.754;6.866;2023-10-08T00:17:26;1.75;;;1.00;;
53925;SDS011;39836;52.754;6.866;2023-10-08T00:19:51;4.40;;;1.45;;
53925;SDS011;39836;52.754;6.866;2023-10-08T00:22:17;1.33;;;1.23;;
53925;SDS011;39836;52.754;6.866;2023-10-08T00:24:44;2.65;;;1.20;;
53925;SDS011;39836;52.754;6.866;2023-10-08T00:27:20;2.17;;;1.50;;
53925;SDS011;39836;52.754;6.866;2023-10-08T00:29:47;2.00;;;1.42;;
53925;SDS011;39836;52.754;6.866;2023-10-08T00:32:12;1.63;;;1.35;;
53925;SDS011;39836;52.754;6.866;2023-10-08T00:34:41;2.95;;;1.42;;
53925;SDS011;39836;52.754;6.866;2023-10-08T00:37:09;3.63;;;1.40;;
53925;SDS011;39836;52.754;6.866;2023-10-08T00:39:39;2.30;;;1.40;;
53925;SDS011;39836;52.754;6.866;2023-10-08T00:42:06;3.35;;;1.65;;
53925;SDS011;39836;52.754;6.866;2023-10-08T00:44:33;3.00;;;1.70;;
53925;SDS011;39836;52.754;6.866;2023-10-08T00:47:19;3.78;;;1.60;;
53925;SDS011;39836;52.754;6.866;2023-10-08T00:49:51;5.05;;;1.88;;
53925;SDS011;39836;52.754;6.866;2023-10-08T00:52:28;3.75;;;1.48;;
53925;SDS011;39836;52.754;6.866;2023-10-08T00:55:13;4.60;;;1.80;;
53925;SDS011;39836;52.754;6.866;2023-10-08T00:57:55;2.95;;;2.08;;
53925;SDS011;39836;52.754;6.866;2023-10-08T01:00:23;4.63;;;2.00;;
53925;SDS011;39836;52.754;6.866;2023-10-08T01:02:57;4.80;;;2.25;;
53925;SDS011;39836;52.754;6.866;2023-10-08T01:05:27;2.80;;;2.00;;
53925;SDS011;39836;52.754;6.866;2023-10-08T01:08:11;5.32;;;2.13;;
53925;SDS011;39836;52.754;6.866;2023-10-08T01:10:43;4.35;;;2.47;;
53925;SDS011;39836;52.754;6.866;2023-10-08T01:13:11;4.80;;;2.55;;
53925;SDS011;39836;52.754;6.866;2023-10-08T01:15:45;5.30;;;2.20;;
53925;SDS011;39836;52.754;6.866;2023-10-08T01:18:15;5.45;;;2.40;;
53925;SDS011;39836;52.754;6.866;2023-10-08T01:20:43;4.35;;;2.40;;
53925;SDS011;39836;52.754;6.866;2023-10-08T01:23:18;5.30;;;2.60;;
53925;SDS011;39836;52.754;6.866;2023-10-08T01:25:51;3.58;;;2.47;;
53925;SDS011;39836;52.754;6.866;2023-10-08T01:28:18;3.53;;;2.25;;
53925;SDS011;39836;52.754;6.866;2023-10-08T01:30:50;3.30;;;2.28;;
53925;SDS011;39836;52.754;6.866;2023-10-08T01:33:18;3.70;;;2.17;;
53925;SDS011;39836;52.754;6.866;2023-10-08T01:35:46;3.42;;;2.42;;
53925;SDS011;39836;52.754;6.866;2023-10-08T01:38:14;5.50;;;2.40;;
53925;SDS011;39836;52.754;6.866;2023-10-08T01:40:41;7.05;;;2.88;;
53925;SDS011;39836;52.754;6.866;2023-10-08T01:43:07;3.65;;;2.42;;
53925;SDS011;39836;52.754;6.866;2023-10-08T01:45:37;4.30;;;2.50;;
53925;SDS011;39836;52.754;6.866;2023-10-08T01:48:07;5.72;;;2.22;;
53925;SDS011;39836;52.754;6.866;2023-10-08T01:50:35;4.13;;;2.58;;
53925;SDS011;39836;52.754;6.866;2023-10-08T01:53:01;4.53;;;2.53;;
53925;SDS011;39836;52.754;6.866;2023-10-08T01:55:27;4.53;;;2.20;;
53925;SDS011;39836;52.754;6.866;2023-10-08T01:57:58;3.88;;;2.50;;
53925;SDS011;39836;52.754;6.866;2023-10-08T02:00:24;4.68;;;2.80;;
53925;SDS011;39836;52.754;6.866;2023-10-08T02:02:52;4.53;;;2.85;;
53925;SDS011;39836;52.754;6.866;2023-10-08T02:05:24;4.10;;;2.78;;
53925;SDS011;39836;52.754;6.866;2023-10-08T02:07:50;6.38;;;2.83;;
53925;SDS011;39836;52.754;6.866;2023-10-08T02:10:16;4.85;;;3.13;;
53925;SDS011;39836;52.754;6.866;2023-10-08T02:12:41;4.95;;;3.00;;
53925;SDS011;39836;52.754;6.866;2023-10-08T02:15:08;4.28;;;2.60;;
53925;SDS011;39836;52.754;6.866;2023-10-08T02:17:36;9.50;;;3.45;;
53925;SDS011;39836;52.754;6.866;2023-10-08T02:20:03;4.50;;;2.97;;
53925;SDS011;39836;52.754;6.866;2023-10-08T02:22:33;5.45;;;2.80;;
53925;SDS011;39836;52.754;6.866;2023-10-08T02:24:59;5.20;;;3.08;;
53925;SDS011;39836;52.754;6.866;2023-10-08T02:27:28;5.28;;;2.90;;
53925;SDS011;39836;52.754;6.866;2023-10-08T02:29:54;4.18;;;2.80;;
53925;SDS011;39836;52.754;6.866;2023-10-08T02:32:20;5.72;;;3.58;;
53925;SDS011;39836;52.754;6.866;2023-10-08T02:34:49;4.75;;;3.13;;
53925;SDS011;39836;52.754;6.866;2023-10-08T02:37:15;5.50;;;3.05;;
53925;SDS011;39836;52.754;6.866;2023-10-08T02:39:41;5.07;;;3.00;;
53925;SDS011;39836;52.754;6.866;2023-10-08T02:42:07;8.32;;;3.47;;
53925;SDS011;39836;52.754;6.866;2023-10-08T02:44:36;5.18;;;3.22;;
53925;SDS011;39836;52.754;6.866;2023-10-08T02:47:08;6.75;;;3.10;;
53925;SDS011;39836;52.754;6.866;2023-10-08T02:49:37;9.38;;;3.47;;
53925;SDS011;39836;52.754;6.866;2023-10-08T02:52:06;5.03;;;3.15;;
53925;SDS011;39836;52.754;6.866;2023-10-08T02:54:34;5.88;;;3.05;;
53925;SDS011;39836;52.754;6.866;2023-10-08T02:57:01;6.30;;;3.45;;
53925;SDS011;39836;52.754;6.866;2023-10-08T02:59:35;4.63;;;3.13;;
53925;SDS011;39836;52.754;6.866;2023-10-08T03:02:09;4.22;;;3.00;;
53925;SDS011;39836;52.754;6.866;2023-10-08T03:04:46;3.72;;;3.03;;
53925;SDS011;39836;52.754;6.866;2023-10-08T03:07:13;5.47;;;2.92;;
53925;SDS011;39836;52.754;6.866;2023-10-08T03:09:57;4.80;;;2.83;;
53925;SDS011;39836;52.754;6.866;2023-10-08T03:12:42;4.35;;;2.67;;
53925;SDS011;39836;52.754;6.866;2023-10-08T03:15:10;4.10;;;2.22;;
53925;SDS011;39836;52.754;6.866;2023-10-08T03:18:04;4.82;;;2.58;;
53925;SDS011;39836;52.754;6.866;2023-10-08T03:20:38;4.63;;;2.60;;
53925;SDS011;39836;52.754;6.866;2023-10-08T03:23:08;5.63;;;2.78;;
53925;SDS011;39836;52.754;6.866;2023-10-08T03:25:53;4.40;;;2.77;;
53925;SDS011;39836;52.754;6.866;2023-10-08T03:28:27;4.25;;;2.35;;
53925;SDS011;39836;52.754;6.866;2023-10-08T03:30:54;4.38;;;2.78;;
53925;SDS011;39836;52.754;6.866;2023-10-08T03:33:30;5.47;;;2.65;;
53925;SDS011;39836;52.754;6.866;2023-10-08T03:36:00;5.25;;;2.42;;
53925;SDS011;39836;52.754;6.866;2023-10-08T03:38:39;6.43;;;2.75;;
53925;SDS011;39836;52.754;6.866;2023-10-08T03:41:22;3.50;;;2.17;;
53925;SDS011;39836;52.754;6.866;2023-10-08T03:43:55;5.88;;;2.65;;
53925;SDS011;39836;52.754;6.866;2023-10-08T03:46:31;5.47;;;2.50;;
53925;SDS011;39836;52.754;6.866;2023-10-08T03:49:04;5.05;;;2.60;;
53925;SDS011;39836;52.754;6.866;2023-10-08T03:51:37;4.50;;;2.47;;
53925;SDS011;39836;52.754;6.866;2023-10-08T03:54:07;3.50;;;2.33;;
53925;SDS011;39836;52.754;6.866;2023-10-08T03:56:43;6.63;;;3.28;;
53925;SDS011;39836;52.754;6.866;2023-10-08T03:59:14;4.65;;;2.30;;
53925;SDS011;39836;52.754;6.866;2023-10-08T04:01:53;6.75;;;2.50;;
53925;SDS011;39836;52.754;6.866;2023-10-08T04:04:22;5.43;;;2.75;;
53925;SDS011;39836;52.754;6.866;2023-10-08T04:06:55;6.20;;;2.20;;
53925;SDS011;39836;52.754;6.866;2023-10-08T04:09:41;4.78;;;2.33;;
53925;SDS011;39836;52.754;6.866;2023-10-08T04:12:07;4.78;;;2.25;;
53925;SDS011;39836;52.754;6.866;2023-10-08T04:14:36;4.70;;;2.00;;
53925;SDS011;39836;52.754;6.866;2023-10-08T04:17:01;4.03;;;2.08;;
53925;SDS011;39836;52.754;6.866;2023-10-08T04:19:29;6.70;;;2.13;;
53925;SDS011;39836;52.754;6.866;2023-10-08T04:21:55;2.88;;;1.67;;
53925;SDS011;39836;52.754;6.866;2023-10-08T04:24:27;3.78;;;1.77;;
53925;SDS011;39836;52.754;6.866;2023-10-08T04:26:57;5.40;;;2.00;;
53925;SDS011;39836;52.754;6.866;2023-10-08T04:29:23;4.90;;;2.08;;
53925;SDS011;39836;52.754;6.866;2023-10-08T04:31:49;4.05;;;1.80;;
53925;SDS011;39836;52.754;6.866;2023-10-08T04:34:27;5.07;;;2.25;;
53925;SDS011;39836;52.754;6.866;2023-10-08T04:36:53;7.50;;;2.33;;
53925;SDS011;39836;52.754;6.866;2023-10-08T04:39:20;5.97;;;2.55;;
53925;SDS011;39836;52.754;6.866;2023-10-08T04:41:56;5.85;;;2.75;;
53925;SDS011;39836;52.754;6.866;2023-10-08T04:44:32;4.85;;;2.45;;
53925;SDS011;39836;52.754;6.866;2023-10-08T04:46:58;4.45;;;2.78;;
53925;SDS011;39836;52.754;6.866;2023-10-08T04:49:30;6.28;;;2.92;;
53925;SDS011;39836;52.754;6.866;2023-10-08T04:52:01;7.13;;;3.13;;
53925;SDS011;39836;52.754;6.866;2023-10-08T04:54:38;7.18;;;2.42;;
53925;SDS011;39836;52.754;6.866;2023-10-08T04:57:06;5.80;;;2.90;;
53925;SDS011;39836;52.754;6.866;2023-10-08T04:59:40;8.05;;;2.88;;
53925;SDS011;39836;52.754;6.866;2023-10-08T05:02:11;5.07;;;2.67;;
53925;SDS011;39836;52.754;6.866;2023-10-08T05:04:38;7.25;;;3.00;;
53925;SDS011;39836;52.754;6.866;2023-10-08T05:07:12;6.50;;;2.47;;
53925;SDS011;39836;52.754;6.866;2023-10-08T05:09:57;4.82;;;2.35;;
53925;SDS011;39836;52.754;6.866;2023-10-08T05:12:29;4.60;;;2.50;;
53925;SDS011;39836;52.754;6.866;2023-10-08T05:14:58;6.05;;;2.42;;
53925;SDS011;39836;52.754;6.866;2023-10-08T05:17:39;7.57;;;2.00;;
53925;SDS011;39836;52.754;6.866;2023-10-08T05:20:20;8.32;;;2.30;;
53925;SDS011;39836;52.754;6.866;2023-10-08T05:23:09;6.25;;;2.00;;
53925;SDS011;39836;52.754;6.866;2023-10-08T05:25:56;7.63;;;2.05;;
53925;SDS011;39836;52.754;6.866;2023-10-08T05:28:43;5.88;;;2.80;;
53925;SDS011;39836;52.754;6.866;2023-10-08T05:31:28;5.88;;;2.30;;
53925;SDS011;39836;52.754;6.866;2023-10-08T05:34:06;7.53;;;1.90;;
53925;SDS011;39836;52.754;6.866;2023-10-08T05:36:55;4.57;;;1.65;;
53925;SDS011;39836;52.754;6.866;2023-10-08T05:39:30;4.00;;;1.73;;
53925;SDS011;39836;52.754;6.866;2023-10-08T05:42:07;5.10;;;2.25;;
53925;SDS011;39836;52.754;6.866;2023-10-08T05:44:56;9.70;;;3.58;;
53925;SDS011;39836;52.754;6.866;2023-10-08T05:47:34;6.30;;;2.03;;
53925;SDS011;39836;52.754;6.866;2023-10-08T05:50:00;4.97;;;1.95;;
53925;SDS011;39836;52.754;6.866;2023-10-08T05:52:46;6.25;;;1.73;;
53925;SDS011;39836;52.754;6.866;2023-10-08T05:58:03;11.85;;;2.08;;
53925;SDS011;39836;52.754;6.866;2023-10-08T06:00:43;8.43;;;1.88;;
53925;SDS011;39836;52.754;6.866;2023-10-08T06:03:32;7.97;;;2.33;;
53925;SDS011;39836;52.754;6.866;2023-10-08T06:06:03;7.88;;;1.60;;
53925;SDS011;39836;52.754;6.866;2023-10-08T06:08:37;7.28;;;1.70;;
53925;SDS011;39836;52.754;6.866;2023-10-08T06:11:21;8.48;;;2.22;;
53925;SDS011;39836;52.754;6.866;2023-10-08T06:14:13;4.38;;;1.70;;
53925;SDS011;39836;52.754;6.866;2023-10-08T06:16:45;4.70;;;1.70;;
53925;SDS011;39836;52.754;6.866;2023-10-08T06:19:12;4.90;;;1.50;;
53925;SDS011;39836;52.754;6.866;2023-10-08T06:21:39;4.25;;;1.80;;
53925;SDS011;39836;52.754;6.866;2023-10-08T06:24:07;4.05;;;1.52;;
53925;SDS011;39836;52.754;6.866;2023-10-08T06:26:41;5.63;;;1.88;;
53925;SDS011;39836;52.754;6.866;2023-10-08T06:29:16;7.97;;;1.80;;
53925;SDS011;39836;52.754;6.866;2023-10-08T06:31:52;12.70;;;2.28;;
53925;SDS011;39836;52.754;6.866;2023-10-08T06:34:30;6.55;;;1.67;;
53925;SDS011;39836;52.754;6.866;2023-10-08T06:36:58;4.38;;;1.65;;
53925;SDS011;39836;52.754;6.866;2023-10-08T06:39:24;5.95;;;1.92;;
53925;SDS011;39836;52.754;6.866;2023-10-08T06:41:58;4.93;;;1.80;;
53925;SDS011;39836;52.754;6.866;2023-10-08T06:44:25;8.40;;;2.25;;
53925;SDS011;39836;52.754;6.866;2023-10-08T06:46:52;6.05;;;1.67;;
53925;SDS011;39836;52.754;6.866;2023-10-08T06:49:19;5.57;;;1.80;;
53925;SDS011;39836;52.754;6.866;2023-10-08T06:51:49;5.35;;;1.90;;
53925;SDS011;39836;52.754;6.866;2023-10-08T06:54:19;6.00;;;2.10;;
53925;SDS011;39836;52.754;6.866;2023-10-08T06:56:45;7.75;;;2.03;;
53925;SDS011;39836;52.754;6.866;2023-10-08T06:59:12;9.27;;;2.25;;
53925;SDS011;39836;52.754;6.866;2023-10-08T07:01:39;5.70;;;1.90;;
53925;SDS011;39836;52.754;6.866;2023-10-08T07:04:05;4.80;;;2.00;;
53925;SDS011;39836;52.754;6.866;2023-10-08T07:06:36;5.40;;;2.17;;
53925;SDS011;39836;52.754;6.866;2023-10-08T07:09:06;4.22;;;1.77;;
53925;SDS011;39836;52.754;6.866;2023-10-08T07:11:48;13.20;;;2.20;;
53925;SDS011;39836;52.754;6.866;2023-10-08T07:14:15;7.93;;;1.77;;
53925;SDS011;39836;52.754;6.866;2023-10-08T07:16:41;5.15;;;1.67;;
53925;SDS011;39836;52.754;6.866;2023-10-08T07:19:08;7.65;;;2.17;;
53925;SDS011;39836;52.754;6.866;2023-10-08T07:21:45;9.57;;;2.05;;
53925;SDS011;39836;52.754;6.866;2023-10-08T07:24:14;7.95;;;1.90;;
53925;SDS011;39836;52.754;6.866;2023-10-08T07:26:42;6.68;;;1.83;;
53925;SDS011;39836;52.754;6.866;2023-10-08T07:29:12;7.63;;;1.70;;
53925;SDS011;39836;52.754;6.866;2023-10-08T07:31:42;8.18;;;2.10;;
53925;SDS011;39836;52.754;6.866;2023-10-08T07:34:17;8.25;;;2.17;;
53925;SDS011;39836;52.754;6.866;2023-10-08T07:36:50;8.20;;;1.75;;
53925;SDS011;39836;52.754;6.866;2023-10-08T07:39:18;6.05;;;1.85;;
53925;SDS011;39836;52.754;6.866;2023-10-08T07:42:10;10.25;;;1.80;;
53925;SDS011;39836;52.754;6.866;2023-10-08T07:44:36;9.10;;;2.00;;
53925;SDS011;39836;52.754;6.866;2023-10-08T07:47:04;7.57;;;2.20;;
53925;SDS011;39836;52.754;6.866;2023-10-08T07:49:36;9.23;;;2.30;;
53925;SDS011;39836;52.754;6.866;2023-10-08T07:52:02;7.05;;;1.85;;
53925;SDS011;39836;52.754;6.866;2023-10-08T07:54:31;9.35;;;2.30;;
53925;SDS011;39836;52.754;6.866;2023-10-08T07:57:03;8.43;;;1.88;;
53925;SDS011;39836;52.754;6.866;2023-10-08T07:59:37;11.63;;;1.92;;
53925;SDS011;39836;52.754;6.866;2023-10-08T08:02:06;4.78;;;1.50;;
53925;SDS011;39836;52.754;6.866;2023-10-08T08:04:39;6.78;;;1.70;;
53925;SDS011;39836;52.754;6.866;2023-10-08T08:07:07;10.13;;;2.28;;
53925;SDS011;39836;52.754;6.866;2023-10-08T08:09:33;6.45;;;2.10;;
53925;SDS011;39836;52.754;6.866;2023-10-08T08:12:06;11.10;;;2.50;;
53925;SDS011;39836;52.754;6.866;2023-10-08T08:14:37;11.82;;;2.45;;
53925;SDS011;39836;52.754;6.866;2023-10-08T08:17:06;7.75;;;1.95;;
53925;SDS011;39836;52.754;6.866;2023-10-08T08:19:45;5.20;;;2.10;;
53925;SDS011;39836;52.754;6.866;2023-10-08T08:22:16;15.48;;;2.88;;
53925;SDS011;39836;52.754;6.866;2023-10-08T08:24:56;9.18;;;1.83;;
53925;SDS011;39836;52.754;6.866;2023-10-08T08:27:30;10.65;;;1.88;;
53925;SDS011;39836;52.754;6.866;2023-10-08T08:30:00;7.03;;;1.85;;
53925;SDS011;39836;52.754;6.866;2023-10-08T08:32:39;10.30;;;2.25;;
53925;SDS011;39836;52.754;6.866;2023-10-08T08:35:09;9.77;;;1.70;;
53925;SDS011;39836;52.754;6.866;2023-10-08T08:37:36;5.43;;;2.38;;
53925;SDS011;39836;52.754;6.866;2023-10-08T08:40:03;11.82;;;2.03;;
53925;SDS011;39836;52.754;6.866;2023-10-08T08:42:45;9.45;;;1.98;;
53925;SDS011;39836;52.754;6.866;2023-10-08T08:45:13;8.07;;;1.80;;
53925;SDS011;39836;52.754;6.866;2023-10-08T08:47:43;10.23;;;2.80;;
53925;SDS011;39836;52.754;6.866;2023-10-08T08:50:11;9.98;;;2.40;;
53925;SDS011;39836;52.754;6.866;2023-10-08T08:52:40;6.22;;;1.90;;
53925;SDS011;39836;52.754;6.866;2023-10-08T08:55:06;4.82;;;1.52;;
53925;SDS011;39836;52.754;6.866;2023-10-08T08:57:41;7.85;;;1.80;;
53925;SDS011;39836;52.754;6.866;2023-10-08T09:00:09;6.38;;;1.73;;
53925;SDS011;39836;52.754;6.866;2023-10-08T09:02:37;8.27;;;1.63;;
53925;SDS011;39836;52.754;6.866;2023-10-08T09:05:03;7.40;;;1.55;;
53925;SDS011;39836;52.754;6.866;2023-10-08T09:08:00;9.60;;;2.08;;
53925;SDS011;39836;52.754;6.866;2023-10-08T09:10:34;7.30;;;1.83;;
53925;SDS011;39836;52.754;6.866;2023-10-08T09:13:18;7.90;;;1.80;;
53925;SDS011;39836;52.754;6.866;2023-10-08T09:15:51;7.47;;;1.80;;
53925;SDS011;39836;52.754;6.866;2023-10-08T09:18:17;5.78;;;1.73;;
53925;SDS011;39836;52.754;6.866;2023-10-08T09:20:46;8.13;;;1.98;;
53925;SDS011;39836;52.754;6.866;2023-10-08T09:23:16;5.88;;;1.80;;
53925;SDS011;39836;52.754;6.866;2023-10-08T09:25:47;4.38;;;1.40;;
53925;SDS011;39836;52.754;6.866;2023-10-08T09:28:17;10.10;;;2.30;;
53925;SDS011;39836;52.754;6.866;2023-10-08T09:30:43;8.00;;;2.47;;
53925;SDS011;39836;52.754;6.866;2023-10-08T09:33:13;8.30;;;1.85;;
53925;SDS011;39836;52.754;6.866;2023-10-08T09:35:40;6.18;;;1.70;;
53925;SDS011;39836;52.754;6.866;2023-10-08T09:38:08;9.80;;;1.83;;
53925;SDS011;39836;52.754;6.866;2023-10-08T09:40:35;5.75;;;1.42;;
53925;SDS011;39836;52.754;6.866;2023-10-08T09:43:02;6.55;;;1.48;;
53925;SDS011;39836;52.754;6.866;2023-10-08T09:45:29;8.30;;;1.75;;
53925;SDS011;39836;52.754;6.866;2023-10-08T09:47:56;8.32;;;2.22;;
53925;SDS011;39836;52.754;6.866;2023-10-08T09:50:29;8.18;;;1.60;;
53925;SDS011;39836;52.754;6.866;2023-10-08T09:55:48;10.60;;;2.30;;
53925;SDS011;39836;52.754;6.866;2023-10-08T09:58:22;11.45;;;1.90;;
53925;SDS011;39836;52.754;6.866;2023-10-08T10:00:49;11.20;;;1.92;;
53925;SDS011;39836;52.754;6.866;2023-10-08T10:03:17;13.50;;;2.58;;
53925;SDS011;39836;52.754;6.866;2023-10-08T10:05:44;9.35;;;1.58;;
53925;SDS011;39836;52.754;6.866;2023-10-08T10:08:10;9.68;;;1.73;;
53925;SDS011;39836;52.754;6.866;2023-10-08T10:10:36;9.55;;;2.10;;
53925;SDS011;39836;52.754;6.866;2023-10-08T10:13:04;13.82;;;1.95;;
53925;SDS011;39836;52.754;6.866;2023-10-08T10:15:33;13.43;;;2.10;;
53925;SDS011;39836;52.754;6.866;2023-10-08T10:18:16;6.85;;;1.80;;
53925;SDS011;39836;52.754;6.866;2023-10-08T10:31:49;8.50;;;2.05;;
53925;SDS011;39836;52.754;6.866;2023-10-08T10:34:39;10.55;;;1.75;;
53925;SDS011;39836;52.754;6.866;2023-10-08T10:37:05;8.43;;;2.08;;
53925;SDS011;39836;52.754;6.866;2023-10-08T10:39:34;11.85;;;1.92;;
53925;SDS011;39836;52.754;6.866;2023-10-08T10:42:05;11.77;;;2.45;;
53925;SDS011;39836;52.754;6.866;2023-10-08T10:44:32;12.35;;;2.78;;
53925;SDS011;39836;52.754;6.866;2023-10-08T10:47:02;9.93;;;2.00;;
53925;SDS011;39836;52.754;6.866;2023-10-08T10:49:40;14.18;;;1.73;;
53925;SDS011;39836;52.754;6.866;2023-10-08T10:52:25;9.32;;;2.22;;
53925;SDS011;39836;52.754;6.866;2023-10-08T10:55:09;11.90;;;2.10;;
53925;SDS011;39836;52.754;6.866;2023-10-08T10:57:39;5.95;;;1.80;;
53925;SDS011;39836;52.754;6.866;2023-10-08T11:00:07;11.20;;;1.98;;
53925;SDS011;39836;52.754;6.866;2023-10-08T11:02:52;11.75;;;2.55;;
53925;SDS011;39836;52.754;6.866;2023-10-08T11:05:22;11.05;;;1.77;;
53925;SDS011;39836;52.754;6.866;2023-10-08T11:07:56;11.90;;;1.88;;
53925;SDS011;39836;52.754;6.866;2023-10-08T11:10:33;10.85;;;1.98;;
53925;SDS011;39836;52.754;6.866;2023-10-08T11:13:03;9.07;;;1.88;;
53925;SDS011;39836;52.754;6.866;2023-10-08T11:15:39;11.68;;;2.08;;
53925;SDS011;39836;52.754;6.866;2023-10-08T11:18:14;7.40;;;1.60;;
53925;SDS011;39836;52.754;6.866;2023-10-08T11:20:40;18.55;;;3.33;;
53925;SDS011;39836;52.754;6.866;2023-10-08T11:23:09;11.77;;;2.03;;
53925;SDS011;39836;52.754;6.866;2023-10-08T11:26:36;14.48;;;2.30;;
53925;SDS011;39836;52.754;6.866;2023-10-08T11:29:19;10.02;;;1.45;;
53925;SDS011;39836;52.754;6.866;2023-10-08T11:31:51;14.05;;;1.92;;
53925;SDS011;39836;52.754;6.866;2023-10-08T11:34:17;6.70;;;1.35;;
53925;SDS011;39836;52.754;6.866;2023-10-08T11:36:52;11.88;;;2.42;;
53925;SDS011;39836;52.754;6.866;2023-10-08T11:39:18;12.27;;;2.40;;
53925;SDS011;39836;52.754;6.866;2023-10-08T11:45:02;13.20;;;1.95;;
53925;SDS011;39836;52.754;6.866;2023-10-08T11:47:47;10.20;;;1.90;;
53925;SDS011;39836;52.754;6.866;2023-10-08T11:50:22;13.18;;;2.55;;
53925;SDS011;39836;52.754;6.866;2023-10-08T11:52:56;8.35;;;2.35;;
53925;SDS011;39836;52.754;6.866;2023-10-08T11:55:32;9.82;;;2.28;;
53925;SDS011;39836;52.754;6.866;2023-10-08T11:58:05;8.32;;;2.00;;
53925;SDS011;39836;52.754;6.866;2023-10-08T12:00:42;12.27;;;2.00;;
53925;SDS011;39836;52.754;6.866;2023-10-08T12:03:17;5.57;;;1.95;;
53925;SDS011;39836;52.754;6.866;2023-10-08T12:05:49;6.28;;;1.70;;
53925;SDS011;39836;52.754;6.866;2023-10-08T12:08:23;6.65;;;1.45;;
53925;SDS011;39836;52.754;6.866;2023-10-08T12:10:52;13.40;;;3.38;;
53925;SDS011;39836;52.754;6.866;2023-10-08T12:13:25;8.95;;;1.80;;
53925;SDS011;39836;52.754;6.866;2023-10-08T12:15:54;7.97;;;1.67;;
53925;SDS011;39836;52.754;6.866;2023-10-08T12:18:31;6.53;;;1.35;;
53925;SDS011;39836;52.754;6.866;2023-10-08T12:21:04;8.18;;;1.55;;
53925;SDS011;39836;52.754;6.866;2023-10-08T12:23:36;9.07;;;1.42;;
53925;SDS011;39836;52.754;6.866;2023-10-08T12:26:02;14.55;;;1.67;;
53925;SDS011;39836;52.754;6.866;2023-10-08T12:28:28;13.57;;;2.20;;
53925;SDS011;39836;52.754;6.866;2023-10-08T12:30:54;14.50;;;2.40;;
53925;SDS011;39836;52.754;6.866;2023-10-08T12:33:25;11.75;;;1.83;;
53925;SDS011;39836;52.754;6.866;2023-10-08T12:35:54;11.82;;;2.22;;
53925;SDS011;39836;52.754;6.866;2023-10-08T12:38:24;9.20;;;1.58;;
53925;SDS011;39836;52.754;6.866;2023-10-08T12:40:53;9.43;;;1.60;;
53925;SDS011;39836;52.754;6.866;2023-10-08T12:43:23;6.40;;;1.30;;
53925;SDS011;39836;52.754;6.866;2023-10-08T12:45:52;7.20;;;1.50;;
53925;SDS011;39836;52.754;6.866;2023-10-08T12:48:23;6.43;;;1.52;;
53925;SDS011;39836;52.754;6.866;2023-10-08T12:50:51;7.97;;;1.23;;
53925;SDS011;39836;52.754;6.866;2023-10-08T12:53:24;9.32;;;1.70;;
53925;SDS011;39836;52.754;6.866;2023-10-08T12:55:55;7.60;;;1.60;;
53925;SDS011;39836;52.754;6.866;2023-10-08T12:58:23;6.10;;;1.40;;
53925;SDS011;39836;52.754;6.866;2023-10-08T13:00:55;8.35;;;1.60;;
53925;SDS011;39836;52.754;6.866;2023-10-08T13:03:28;6.90;;;1.35;;
53925;SDS011;39836;52.754;6.866;2023-10-08T13:05:56;5.93;;;1.50;;
53925;SDS011;39836;52.754;6.866;2023-10-08T13:08:36;8.50;;;1.33;;
53925;SDS011;39836;52.754;6.866;2023-10-08T13:11:02;8.90;;;1.95;;
53925;SDS011;39836;52.754;6.866;2023-10-08T13:13:32;9.30;;;1.45;;
53925;SDS011;39836;52.754;6.866;2023-10-08T13:15:59;9.18;;;1.83;;
53925;SDS011;39836;52.754;6.866;2023-10-08T13:18:32;14.35;;;1.70;;
53925;SDS011;39836;52.754;6.866;2023-10-08T13:21:03;7.45;;;1.30;;
53925;SDS011;39836;52.754;6.866;2023-10-08T13:23:29;8.52;;;2.10;;
53925;SDS011;39836;52.754;6.866;2023-10-08T13:25:56;8.15;;;1.55;;
53925;SDS011;39836;52.754;6.866;2023-10-08T13:28:23;11.10;;;1.85;;
53925;SDS011;39836;52.754;6.866;2023-10-08T13:30:52;6.38;;;1.55;;
53925;SDS011;39836;52.754;6.866;2023-10-08T13:33:19;6.60;;;1.40;;
53925;SDS011;39836;52.754;6.866;2023-10-08T13:35:47;6.38;;;1.50;;
53925;SDS011;39836;52.754;6.866;2023-10-08T13:38:18;8.32;;;1.77;;
53925;SDS011;39836;52.754;6.866;2023-10-08T13:40:51;8.82;;;1.67;;
53925;SDS011;39836;52.754;6.866;2023-10-08T13:43:30;10.25;;;1.48;;
53925;SDS011;39836;52.754;6.866;2023-10-08T13:46:03;5.53;;;1.30;;
53925;SDS011;39836;52.754;6.866;2023-10-08T13:48:31;9.48;;;1.75;;
53925;SDS011;39836;52.754;6.866;2023-10-08T13:51:02;5.88;;;1.65;;
53925;SDS011;39836;52.754;6.866;2023-10-08T13:53:32;8.48;;;1.75;;
53925;SDS011;39836;52.754;6.866;2023-10-08T13:56:01;9.73;;;1.40;;
53925;SDS011;39836;52.754;6.866;2023-10-08T13:58:29;9.60;;;1.88;;
53925;SDS011;39836;52.754;6.866;2023-10-08T14:01:05;6.80;;;1.30;;
53925;SDS011;39836;52.754;6.866;2023-10-08T14:03:44;7.57;;;1.55;;
53925;SDS011;39836;52.754;6.866;2023-10-08T14:06:10;8.95;;;1.60;;
53925;SDS011;39836;52.754;6.866;2023-10-08T14:08:36;9.88;;;1.90;;
53925;SDS011;39836;52.754;6.866;2023-10-08T14:11:04;8.63;;;1.45;;
53925;SDS011;39836;52.754;6.866;2023-10-08T14:13:30;6.35;;;1.38;;
53925;SDS011;39836;52.754;6.866;2023-10-08T14:16:01;6.22;;;1.75;;
53925;SDS011;39836;52.754;6.866;2023-10-08T14:21:09;10.48;;;1.48;;
53925;SDS011;39836;52.754;6.866;2023-10-08T14:23:38;7.45;;;1.48;;
53925;SDS011;39836;52.754;6.866;2023-10-08T14:26:05;9.48;;;1.83;;
53925;SDS011;39836;52.754;6.866;2023-10-08T14:28:35;8.35;;;1.50;;
53925;SDS011;39836;52.754;6.866;2023-10-08T14:31:16;6.40;;;1.60;;
53925;SDS011;39836;52.754;6.866;2023-10-08T14:33:45;8.70;;;1.42;;
53925;SDS011;39836;52.754;6.866;2023-10-08T14:36:29;6.88;;;1.75;;
53925;SDS011;39836;52.754;6.866;2023-10-08T14:39:13;9.10;;;1.55;;
53925;SDS011;39836;52.754;6.866;2023-10-08T14:41:57;8.45;;;1.30;;
53925;SDS011;39836;52.754;6.866;2023-10-08T14:44:41;7.88;;;1.98;;
53925;SDS011;39836;52.754;6.866;2023-10-08T14:47:07;8.07;;;1.60;;
53925;SDS011;39836;52.754;6.866;2023-10-08T14:49:33;7.72;;;1.40;;
53925;SDS011;39836;52.754;6.866;2023-10-08T14:52:00;5.90;;;1.50;;
53925;SDS011;39836;52.754;6.866;2023-10-08T14:54:29;10.27;;;1.60;;
53925;SDS011;39836;52.754;6.866;2023-10-08T14:56:56;11.18;;;1.75;;
53925;SDS011;39836;52.754;6.866;2023-10-08T14:59:22;10.70;;;1.67;;
53925;SDS011;39836;52.754;6.866;2023-10-08T15:01:48;7.68;;;1.45;;
53925;SDS011;39836;52.754;6.866;2023-10-08T15:04:15;5.55;;;1.52;;
53925;SDS011;39836;52.754;6.866;2023-10-08T15:06:43;14.90;;;1.33;;
53925;SDS011;39836;52.754;6.866;2023-10-08T15:09:09;11.60;;;2.22;;
53925;SDS011;39836;52.754;6.866;2023-10-08T15:11:43;6.20;;;1.58;;
53925;SDS011;39836;52.754;6.866;2023-10-08T15:14:11;7.60;;;1.83;;
53925;SDS011;39836;52.754;6.866;2023-10-08T15:16:37;5.50;;;1.45;;
53925;SDS011;39836;52.754;6.866;2023-10-08T15:19:04;7.10;;;1.27;;
53925;SDS011;39836;52.754;6.866;2023-10-08T15:21:30;6.55;;;1.55;;
53925;SDS011;39836;52.754;6.866;2023-10-08T15:24:04;5.30;;;1.38;;
53925;SDS011;39836;52.754;6.866;2023-10-08T15:26:35;13.43;;;2.60;;
53925;SDS011;39836;52.754;6.866;2023-10-08T15:29:01;5.68;;;1.88;;
53925;SDS011;39836;52.754;6.866;2023-10-08T15:31:28;7.28;;;1.50;;
53925;SDS011;39836;52.754;6.866;2023-10-08T15:33:54;7.38;;;1.77;;
53925;SDS011;39836;52.754;6.866;2023-10-08T15:36:19;10.05;;;1.90;;